createdAt,value
2022-11-17T00:04:16.719Z,81.98
2022-11-17T00:09:39.762Z,80.99
2022-11-17T00:15:03.470Z,79.29
2022-11-17T00:20:45.260Z,77.78
2022-11-17T00:26:07.797Z,76.88
2022-11-17T00:31:50.666Z,76.72
2022-11-17T00:37:15.265Z,76.76
2022-11-17T00:42:38.641Z,76.56
2022-11-17T00:48:01.823Z,76.15
2022-11-17T00:53:26.649Z,75.70
2022-11-17T00:58:49.387Z,75.49
2022-11-17T01:04:13.643Z,75.49
2022-11-17T01:09:37.881Z,75.62
2022-11-17T01:15:01.375Z,75.86
2022-11-17T01:20:24.965Z,75.62
2022-11-17T01:25:47.765Z,75.71
2022-11-17T01:31:15.943Z,76.05
2022-11-17T01:37:06.294Z,76.36
2022-11-17T01:42:32.668Z,76.37
2022-11-17T01:48:05.633Z,76.14
2022-11-17T01:53:32.982Z,75.89
2022-11-17T01:59:00.558Z,75.71
2022-11-17T02:04:22.857Z,75.64
2022-11-17T02:09:46.754Z,75.61
2022-11-17T02:15:10.168Z,75.63
2022-11-17T02:20:53.515Z,75.59
2022-11-17T02:27:12.381Z,75.37
2022-11-17T02:32:47.042Z,75.52
2022-11-17T02:38:20.873Z,75.56
2022-11-17T02:49:52.957Z,76.29
2022-11-17T02:55:21.072Z,76.81
2022-11-17T03:00:46.984Z,77.27
2022-11-17T03:06:33.410Z,77.78
2022-11-17T03:12:06.372Z,78.32
2022-11-17T03:17:42.105Z,78.78
2022-11-17T03:23:24.874Z,78.76
2022-11-17T03:28:50.548Z,78.55
2022-11-17T03:34:16.146Z,77.77
2022-11-17T03:39:48.861Z,77.34
2022-11-17T03:45:24.897Z,77.20
2022-11-17T03:51:03.199Z,77.35
2022-11-17T03:56:41.564Z,77.66
2022-11-17T04:02:04.629Z,77.89
2022-11-17T04:07:29.209Z,77.93
2022-11-17T04:13:11.359Z,78.01
2022-11-17T04:18:35.978Z,78.21
2022-11-17T04:23:58.967Z,78.44
2022-11-17T04:29:21.998Z,78.79
2022-11-17T04:34:46.710Z,79.24
2022-11-17T04:40:11.549Z,79.46
2022-11-17T04:45:34.397Z,79.77
2022-11-17T04:51:02.510Z,80.12
2022-11-17T04:56:27.943Z,80.71
2022-11-17T05:01:51.555Z,81.30
2022-11-17T05:07:14.575Z,81.68
2022-11-17T05:12:54.573Z,81.88
2022-11-17T05:18:19.282Z,81.90
2022-11-17T05:23:55.267Z,81.93
2022-11-17T05:29:21.628Z,82.02
2022-11-17T05:34:45.584Z,82.19
2022-11-17T05:40:10.018Z,82.54
2022-11-17T05:45:33.017Z,82.87
2022-11-17T05:50:57.970Z,83.14
2022-11-17T05:56:51.473Z,83.36
2022-11-17T06:02:24.718Z,83.69
2022-11-17T06:07:49.879Z,83.92
2022-11-17T06:13:12.051Z,84.04
2022-11-17T06:18:39.092Z,84.08
2022-11-17T06:24:03.233Z,84.31
2022-11-17T06:29:28.019Z,84.69
2022-11-17T06:34:55.684Z,85.06
2022-11-17T06:40:17.441Z,85.45
2022-11-17T06:45:42.559Z,85.85
2022-11-17T06:51:08.580Z,86.21
2022-11-17T06:56:30.753Z,86.55
2022-11-17T07:01:53.809Z,86.82
2022-11-17T07:07:18.824Z,87.32
2022-11-17T07:12:42.751Z,87.85
2022-11-17T07:18:06.714Z,88.54
2022-11-17T07:23:29.588Z,89.15
2022-11-17T07:28:52.796Z,89.63
2022-11-17T07:34:15.736Z,90.03
2022-11-17T07:39:40.350Z,90.32
2022-11-17T07:45:02.616Z,90.30
2022-11-17T07:50:25.464Z,90.05
2022-11-17T07:55:48.529Z,89.64
2022-11-17T08:01:17.407Z,89.12
2022-11-17T08:06:39.776Z,88.73
2022-11-17T08:12:02.531Z,88.28
2022-11-17T08:17:24.747Z,88.03
2022-11-17T08:22:47.125Z,86.55
2022-11-17T08:28:11.183Z,84.48
2022-11-17T08:33:33.368Z,82.20
2022-11-17T08:38:55.570Z,80.44
2022-11-17T08:44:18.871Z,78.96
2022-11-17T08:49:41.154Z,77.61
2022-11-17T08:55:05.531Z,76.63
2022-11-17T09:00:29.026Z,76.04
2022-11-17T09:05:57.104Z,74.89
2022-11-17T09:11:22.591Z,74.94
2022-11-17T09:16:44.850Z,74.76
2022-11-17T09:22:07.546Z,74.74
2022-11-17T09:27:29.741Z,74.27
2022-11-17T09:32:53.717Z,74.30
2022-11-17T09:38:19.684Z,74.21
2022-11-17T09:44:05.526Z,74.09
2022-11-17T09:49:43.914Z,73.25
2022-11-17T09:55:11.318Z,72.40
2022-11-17T10:00:36.297Z,72.00
2022-11-17T10:05:58.632Z,71.50
2022-11-17T10:11:35.386Z,70.83
2022-11-17T10:17:01.905Z,71.19
2022-11-17T10:22:31.820Z,71.06
2022-11-17T10:27:59.326Z,70.94
2022-11-17T10:33:23.762Z,70.79
2022-11-17T10:38:55.417Z,70.73
2022-11-17T10:44:25.330Z,70.07
2022-11-17T10:49:50.118Z,69.89
2022-11-17T10:55:34.575Z,69.84
2022-11-17T11:01:01.458Z,69.58
2022-11-17T11:06:36.255Z,68.75
2022-11-17T11:12:04.340Z,68.83
2022-11-17T11:17:34.069Z,68.98
2022-11-17T11:22:53.338Z,69.17
2022-11-17T11:28:49.001Z,69.43
2022-11-17T11:34:54.803Z,69.09
2022-11-17T11:40:26.287Z,68.79
2022-11-17T11:46:14.229Z,69.26
2022-11-17T11:51:49.919Z,69.83
2022-11-17T11:57:14.839Z,70.11
2022-11-17T12:03:02.863Z,70.06
2022-11-17T12:14:16.751Z,70.02
2022-11-17T12:19:59.272Z,69.31
2022-11-17T12:31:11.400Z,70.23
2022-11-17T12:36:45.476Z,70.48
2022-11-17T12:42:19.565Z,71.09
2022-11-17T12:48:05.223Z,71.33
2022-11-17T12:53:32.285Z,70.93
2022-11-17T12:59:25.995Z,70.66
2022-11-17T13:05:01.603Z,70.65
2022-11-17T13:10:38.610Z,70.72
2022-11-17T13:16:04.516Z,70.56
2022-11-17T13:21:46.629Z,70.62
2022-11-17T13:27:12.959Z,70.54
2022-11-17T13:32:38.031Z,70.52
2022-11-17T13:38:12.805Z,70.66
2022-11-17T13:43:39.628Z,71.14
2022-11-17T13:49:03.816Z,71.23
2022-11-17T13:54:33.734Z,71.42
2022-11-17T13:59:52.177Z,71.74
2022-11-17T14:05:28.646Z,72.01
2022-11-17T14:10:52.962Z,72.09
2022-11-17T14:16:33.626Z,72.28
2022-11-17T14:22:24.728Z,72.46
2022-11-17T14:27:53.191Z,72.72
2022-11-17T14:33:14.033Z,72.96
2022-11-17T14:38:39.052Z,73.21
2022-11-17T14:44:01.325Z,73.54
2022-11-17T14:49:23.729Z,73.83
2022-11-17T14:54:45.904Z,73.99
2022-11-17T15:00:08.878Z,74.24
2022-11-17T15:05:31.550Z,74.30
2022-11-17T15:10:57.477Z,74.61
2022-11-17T15:16:21.223Z,74.86
2022-11-17T15:21:43.479Z,74.93
2022-11-17T15:27:05.706Z,75.00
2022-11-17T15:32:27.902Z,75.03
2022-11-17T15:37:50.283Z,74.95
2022-11-17T15:43:12.661Z,75.27
2022-11-17T15:48:37.651Z,76.13
2022-11-17T15:54:05.432Z,76.96
2022-11-17T15:59:29.578Z,77.72
2022-11-17T16:04:51.794Z,78.52
2022-11-17T16:10:14.066Z,79.44
2022-11-17T16:15:36.260Z,80.37
2022-11-17T16:21:04.019Z,81.23
2022-11-17T16:26:24.076Z,81.96
2022-11-17T16:31:49.036Z,83.00
2022-11-17T16:37:11.437Z,83.76
2022-11-17T16:42:33.804Z,85.08
2022-11-17T16:47:56.027Z,86.43
2022-11-17T16:53:18.287Z,87.36
2022-11-17T16:58:40.488Z,88.40
2022-11-17T17:04:03.409Z,89.27
2022-11-17T17:09:28.109Z,90.29
2022-11-17T17:14:50.536Z,92.01
2022-11-17T17:20:13.342Z,93.61
2022-11-17T17:25:35.539Z,94.72
2022-11-17T17:31:02.877Z,95.24
2022-11-17T17:36:29.229Z,95.54
2022-11-17T17:41:55.242Z,95.48
2022-11-17T17:47:18.892Z,95.35
2022-11-17T17:52:43.251Z,95.17
2022-11-17T17:58:08.850Z,94.67
2022-11-17T18:03:32.632Z,94.23
2022-11-17T18:08:57.604Z,93.58
2022-11-17T18:14:25.055Z,92.98
2022-11-17T18:19:49.280Z,92.52
2022-11-17T18:25:17.786Z,92.26
2022-11-17T18:30:40.251Z,92.01
2022-11-17T18:36:05.343Z,91.59
2022-11-17T18:41:31.089Z,90.79
2022-11-17T18:46:58.236Z,89.99
2022-11-17T18:52:18.892Z,89.19
2022-11-17T18:57:44.995Z,88.46
2022-11-17T19:03:09.670Z,87.87
2022-11-17T19:08:34.516Z,87.62
2022-11-17T19:13:59.114Z,87.48
2022-11-17T19:19:22.026Z,87.27
2022-11-17T19:24:45.706Z,86.87
2022-11-17T19:30:08.739Z,86.11
2022-11-17T19:35:33.104Z,85.10
2022-11-17T19:40:56.202Z,84.30
2022-11-17T19:46:22.218Z,83.70
2022-11-17T19:51:49.443Z,83.46
2022-11-17T19:57:11.663Z,83.66
2022-11-17T20:02:33.854Z,83.87
2022-11-17T20:07:56.068Z,83.42
2022-11-17T20:13:18.281Z,83.39
2022-11-17T20:18:41.914Z,83.50
2022-11-17T20:24:04.967Z,83.79
2022-11-17T20:29:27.804Z,84.04
2022-11-17T20:34:50.101Z,84.13
2022-11-17T20:40:13.161Z,84.51
2022-11-17T20:45:35.677Z,85.39
2022-11-17T20:51:04.463Z,86.45
2022-11-17T20:56:29.647Z,86.98
2022-11-17T21:01:52.336Z,87.53
2022-11-17T21:07:14.541Z,88.05
2022-11-17T21:12:36.790Z,88.48
2022-11-17T21:18:17.962Z,89.39
2022-11-17T21:23:44.180Z,90.29
2022-11-17T21:29:07.303Z,91.40
2022-11-17T21:34:34.506Z,92.35
2022-11-17T21:39:58.254Z,93.33
2022-11-17T21:45:21.951Z,94.54
2022-11-17T21:50:44.131Z,95.37
2022-11-17T21:56:07.081Z,95.88
2022-11-17T22:01:32.493Z,96.63
2022-11-17T22:06:58.944Z,97.47
2022-11-17T22:12:24.453Z,98.48
2022-11-17T22:17:49.669Z,99.00
2022-11-17T22:23:12.457Z,99.52
2022-11-17T22:28:34.727Z,100.00
2022-11-17T22:33:59.592Z,100.00
2022-11-17T22:39:22.676Z,100.00
2022-11-17T22:44:44.863Z,100.00
2022-11-17T22:50:07.128Z,100.00
2022-11-17T22:55:29.316Z,100.00
2022-11-17T23:00:53.378Z,100.00
2022-11-17T23:06:19.225Z,100.00
2022-11-17T23:11:43.939Z,100.00
2022-11-17T23:17:08.664Z,100.00
2022-11-17T23:22:31.315Z,100.00
2022-11-17T23:27:55.833Z,100.00
2022-11-17T23:33:20.349Z,100.00
2022-11-17T23:38:43.534Z,100.00
2022-11-17T23:44:09.800Z,100.00
2022-11-17T23:49:35.002Z,100.00
2022-11-17T23:54:59.214Z,100.00
